Terminal Aerodrome Forecast
Issued by NWS

Home | Current Version | Previous Version | Text Only | Print | Product List | Glossary On
Versions: 1 2 3 4 5 6 7 8 9 10 11 12 13 14 15 16 17 18 19 20 21 22 23 24 25 26
000
FTUS41 KOKX 210800 AAA
TAFHPN
TAF AMD
KHPN 210848Z 2109/2206 VRB03KT 4SM BR SCT007 BKN015
      TEMPO 2110/2113 2SM BR BKN007
     FM211400 VRB03KT P6SM SCT007 BKN015
     FM211700 15004KT P6SM BKN025 BKN035
     FM211900 15006KT P6SM FEW025 SCT250
     FM220100 28005KT P6SM SCT040 BKN250
     FM220500 30007KT P6SM SCT040=

USA.gov is the U.S. government's official web portal to all federal, state and local government web resources and services.